TRINITY LAKE (CLE)

Elevation: 2370' · TRINITY R basin · Operator: US Bureau of Reclamation

Provisional data, subject to change.
Query executed Saturday at 4:18:07   clock

Select a sensor type for a plot of data.
Note: Reservoir Flows are daily averages.

Earlier

Date RES ELE    STORAGE    RES CHG    OUTFLOW    INFLOW    EVAP    FNF    RIV REL    PPT INC    SPILL    DIS PWR   
 FEET   AF   AF   CFS   CFS   CFS   CFS   CFS   INCHES   CFS   CFS  
07/24/2014 2244.32 907072 -6159 3077 21 49 72 e 0 0.00 0 3077
07/25/2014 2243.54 900608 -6464 3287 128 100 72 e 0 0.00 0 3287
07/26/2014 2242.78 894338 -6270 3204 106 63 56 e 0 0.00 0 3204
07/27/2014 2242.10 888754 -5584 2836 132 111 56 e 0 0.00 0 2836
07/28/2014 2241.41 883120 -5634 2952 165 53 55 e 0 0.00 0 2952
07/29/2014 2240.68 877182 -5938 3032 131 93 55 e 0 0.00 0 3032
07/30/2014 2239.96 871349 -5833 3022 133 52 39 e 0 0.00 0 3022
07/31/2014 2239.22 865390 -5959 2981 60 83 36 e 0 0.00 0 2981
08/01/2014 2238.50 859617 -5773 2933 109 87 36 e 0 0.00 0 2933
08/02/2014 2237.77 853787 -5830 2818 -41 80 36 e 0 0.00 0 2818
08/03/2014 2237.11 848540 -5247 2573 17 89 36 0 0.00 0 2573
08/04/2014 2236.39 842845 -5695 2879 99 91 99 0 0.00 0 2879
08/05/2014 2235.69 837330 -5515 2736 16 60 16 0 0.01 0 2736
08/06/2014 2235.01 831992 -5338 2757 91 25 91 0 0.00 0 2757
08/07/2014 2234.42 827388 -4604 2234 -27 60 70 e 0 0.00 0 2234
08/08/2014 2233.76 822252 -5136 2656 138 71 138 0 0.00 0 2656
08/09/2014 2233.03 816594 -5658 2945 167 75 70 e 0 0.00 0 2945
08/10/2014 2232.26 810662 -5932 2970 56 77 56 0 0.00 0 2970
08/11/2014 2231.51 804910 -5752 2950 122 72 122 0 0.00 0 2950
08/12/2014 2230.73 798955 -5955 2898 -32 72 -32 0 0.00 0 2898
08/13/2014 2229.97 793179 -5776 2903 60 69 60 0 0.00 0 2903
08/14/2014 2229.15 786983 -6196 3135 89 78 89 0 0.00 0 3135
08/15/2014 2228.36 781044 -5939 2987 50 57 50 0 0.00 0 2987
08/16/2014 2227.58 775205 -5839 2947 62 59 62 0 0.00 0 2947
08/17/2014 2226.84 769688 -5517 2831 129 79 129 0 0.00 0 2831
08/18/2014 2226.11 764271 -5417 2746 87 72 87 0 0.00 0 2746
08/19/2014 2225.29 758218 -6053 3026 46 72 46 0 0.00 0 3026
08/20/2014 2224.51 752487 -5731 2925 99 63 99 0 0.00 0 2925
08/21/2014 2223.37 744158 -8329 2741 -- 64 -- 0 0.00 0 2741
08/22/2014 -- -- -- -- -- -- -- -- -- -- --
08/23/2014 -- -- -- -- -- -- -- -- -- -- --

Later | Latest

Warning! This data is preliminary and subject to revision.

Download Data Now Download Data Now | Show CLE Map | Plot CLE Data | 1 Month CLE Data | Real-Time CLE Data | CLE Info